Time;durP1;ratioP1;P1;durP2;ratioP2;P2;SDS_P1;SDS_P2;PMS_P1;PMS_P2;Temp;Humidity;BMP_temperature;BMP_pressure;BME280_temperature;BME280_humidity;BME280_pressure;Samples;Min_cycle;Max_cycle;Signal;HPM_P1;HPM_P2
2023/08/15 00:00:23;;;;;;;83.90;37.40;;;23.60;99.90;;;;;;5093928;28;20199;-78
2023/08/15 00:02:49;;;;;;;84.90;37.80;;;23.60;99.90;;;;;;5095696;28;20156;-78
2023/08/15 00:05:15;;;;;;;82.53;36.43;;;23.50;99.90;;;;;;5095372;28;20183;-78
2023/08/15 00:07:41;;;;;;;84.07;35.00;;;23.50;99.90;;;;;;5095010;28;20159;-79
2023/08/15 00:10:07;;;;;;;87.47;36.13;;;23.50;99.90;;;;;;5094862;28;20519;-78
2023/08/15 00:12:33;;;;;;;83.40;36.33;;;23.50;99.90;;;;;;5095134;28;20531;-79
2023/08/15 00:14:58;;;;;;;83.50;36.90;;;23.50;99.90;;;;;;5095064;28;20406;-78
2023/08/15 00:17:24;;;;;;;83.73;37.13;;;23.50;99.90;;;;;;5094551;28;20167;-78
2023/08/15 00:19:50;;;;;;;84.13;37.63;;;23.50;99.90;;;;;;5094545;28;20191;-78
2023/08/15 00:22:17;;;;;;;86.67;39.13;;;23.40;99.90;;;;;;5094647;28;20164;-78
2023/08/15 00:24:43;;;;;;;82.20;37.20;;;23.40;99.90;;;;;;5094568;28;20221;-78
2023/08/15 00:27:09;;;;;;;83.23;36.83;;;23.40;99.90;;;;;;5094088;28;20393;-78
2023/08/15 00:29:34;;;;;;;81.30;36.53;;;23.40;99.90;;;;;;5094093;28;20427;-78
2023/08/15 00:32:00;;;;;;;83.37;38.13;;;23.40;99.90;;;;;;5094179;28;20167;-78
2023/08/15 00:34:25;;;;;;;81.70;37.33;;;23.50;99.90;;;;;;5094031;28;20168;-78
2023/08/15 00:36:51;;;;;;;83.67;38.87;;;23.50;99.90;;;;;;5094710;28;20166;-78
2023/08/15 00:39:18;;;;;;;81.30;37.63;;;23.50;99.90;;;;;;5093686;28;20244;-78
2023/08/15 00:41:44;;;;;;;82.07;36.90;;;23.50;99.90;;;;;;5092778;28;20163;-78
2023/08/15 00:44:09;;;;;;;82.70;36.67;;;23.50;99.90;;;;;;5094286;28;20893;-78
2023/08/15 00:46:38;;;;;;;82.37;33.73;;;23.40;99.90;;;;;;5093868;28;20186;-78
2023/08/15 00:49:04;;;;;;;79.80;30.57;;;23.30;99.90;;;;;;5094289;28;20216;-79
2023/08/15 00:51:31;;;;;;;77.17;25.07;;;23.20;99.90;;;;;;5093683;28;20398;-78
2023/08/15 00:53:57;;;;;;;78.53;23.90;;;23.10;99.90;;;;;;5093788;28;20404;-78
2023/08/15 00:56:22;;;;;;;77.17;21.83;;;23.10;99.90;;;;;;5094290;28;20405;-78
2023/08/15 00:58:48;;;;;;;79.33;21.70;;;23.00;99.90;;;;;;5093772;28;20892;-78
2023/08/15 01:01:17;;;;;;;76.47;21.23;;;22.90;99.90;;;;;;5188515;23;20226;-85
2023/08/15 01:03:45;;;;;;;76.60;22.80;;;23.00;99.90;;;;;;5101414;28;20405;-85
2023/08/15 01:06:11;;;;;;;76.27;19.00;;;23.00;99.90;;;;;;5101287;28;20393;-85
2023/08/15 01:08:37;;;;;;;78.87;23.33;;;23.00;99.90;;;;;;5100925;28;20919;-85
2023/08/15 01:11:04;;;;;;;80.13;25.70;;;23.10;99.90;;;;;;5099936;28;20175;-85
2023/08/15 01:14:04;;;;;;;80.20;27.83;;;23.20;99.90;;;;;;5101823;28;20201;-85
2023/08/15 01:16:37;;;;;;;78.93;26.53;;;23.10;99.90;;;;;;5093389;28;20431;-85
2023/08/15 01:19:20;;;;;;;78.50;28.57;;;23.10;99.90;;;;;;5101155;28;20844;-85
2023/08/15 01:21:54;;;;;;;80.73;28.83;;;23.10;99.90;;;;;;5101375;28;20405;-85
2023/08/15 01:24:20;;;;;;;77.73;23.13;;;23.10;99.90;;;;;;5101851;28;20409;-85
2023/08/15 01:26:46;;;;;;;75.83;22.13;;;23.00;99.90;;;;;;5102012;28;20402;-85
2023/08/15 01:29:11;;;;;;;76.97;22.23;;;23.00;99.90;;;;;;5101342;28;20421;-85
2023/08/15 01:31:54;;;;;;;77.47;23.17;;;23.00;99.90;;;;;;5100768;28;20810;-85
2023/08/15 01:34:36;;;;;;;77.90;25.40;;;23.10;99.90;;;;;;5102302;28;20155;-85
2023/08/15 01:37:08;;;;;;;77.90;23.70;;;23.10;99.90;;;;;;5101657;28;20385;-85
2023/08/15 01:39:36;;;;;;;78.87;22.93;;;23.10;99.90;;;;;;5099693;28;20456;-85
2023/08/15 01:42:03;;;;;;;80.37;27.63;;;23.10;99.90;;;;;;5102704;28;20884;-85
2023/08/15 01:44:30;;;;;;;77.00;19.60;;;23.10;99.90;;;;;;5101799;28;20401;-85
2023/08/15 01:46:56;;;;;;;77.10;20.10;;;23.00;99.90;;;;;;5100928;28;20975;-85
2023/08/15 01:49:40;;;;;;;77.50;22.50;;;23.10;99.90;;;;;;5102231;28;20835;-85
2023/08/15 01:52:06;;;;;;;75.90;22.53;;;23.10;99.90;;;;;;5100173;28;20406;-85
2023/08/15 01:54:31;;;;;;;78.13;19.10;;;23.10;99.90;;;;;;5101218;28;20803;-85
2023/08/15 01:56:57;;;;;;;75.57;17.63;;;23.00;99.90;;;;;;5101585;28;20179;-85
2023/08/15 01:59:23;;;;;;;77.50;16.90;;;22.90;99.90;;;;;;5101004;28;20286;-85
2023/08/15 02:01:49;;;;;;;79.10;16.80;;;22.90;99.90;;;;;;5100146;28;20159;-85
2023/08/15 02:04:14;;;;;;;75.37;17.40;;;22.90;99.90;;;;;;5100181;28;20963;-85
2023/08/15 02:06:40;;;;;;;75.37;16.37;;;22.90;99.90;;;;;;5100019;28;20581;-85
2023/08/15 02:09:06;;;;;;;75.73;15.97;;;23.00;99.90;;;;;;5100825;28;20585;-85
2023/08/15 02:11:31;;;;;;;75.90;18.13;;;23.00;99.90;;;;;;5100989;28;20159;-85
2023/08/15 02:13:58;;;;;;;74.90;16.40;;;23.10;99.90;;;;;;5099052;28;20167;-85
2023/08/15 02:16:23;;;;;;;75.70;17.30;;;23.10;99.90;;;;;;5100931;28;20711;-85
2023/08/15 02:18:49;;;;;;;74.67;16.70;;;23.10;99.90;;;;;;5101133;28;20448;-85
2023/08/15 02:21:15;;;;;;;95.10;56.70;;;23.10;99.90;;;;;;5100749;28;20191;-83
2023/08/15 02:23:40;;;;;;;83.23;22.77;;;23.10;99.90;;;;;;5102409;28;20156;-86
2023/08/15 02:26:06;;;;;;;84.97;35.40;;;23.00;99.90;;;;;;5102833;28;20635;-85
2023/08/15 02:28:32;;;;;;;95.83;59.33;;;22.90;99.90;;;;;;5101127;28;20191;-86
2023/08/15 02:30:58;;;;;;;149.40;135.27;;;22.80;99.90;;;;;;5098647;28;20167;-86
2023/08/15 02:33:26;;;;;;;96.37;73.53;;;22.80;99.90;;;;;;5105869;28;20527;-87
2023/08/15 02:35:52;;;;;;;104.57;76.83;;;22.80;99.90;;;;;;5112258;28;20397;-86
2023/08/15 02:38:18;;;;;;;123.40;110.67;;;22.70;99.90;;;;;;5107432;28;20932;-87
2023/08/15 02:40:44;;;;;;;109.00;85.23;;;22.70;99.90;;;;;;5105969;28;20194;-86
2023/08/15 02:43:09;;;;;;;115.93;103.70;;;22.80;99.90;;;;;;5105093;28;20229;-86
2023/08/15 02:45:35;;;;;;;102.37;83.67;;;22.70;99.90;;;;;;5104998;28;20168;-87
2023/08/15 02:48:01;;;;;;;102.77;75.07;;;22.70;99.90;;;;;;5106471;28;20167;-87
2023/08/15 02:50:27;;;;;;;107.07;70.40;;;22.70;99.90;;;;;;5106619;28;20194;-86
2023/08/15 02:52:53;;;;;;;109.17;91.50;;;22.70;99.90;;;;;;5106146;28;20220;-86
2023/08/15 02:55:19;;;;;;;110.00;83.70;;;22.60;99.90;;;;;;5102534;28;20413;-86
2023/08/15 02:57:44;;;;;;;110.43;96.50;;;22.60;99.90;;;;;;5100543;28;20500;-85
2023/08/15 03:00:11;;;;;;;102.77;87.73;;;22.70;99.90;;;;;;5100880;28;20201;-86
2023/08/15 03:02:38;;;;;;;113.67;101.77;;;22.40;99.90;;;;;;5100599;28;20171;-87
2023/08/15 03:05:04;;;;;;;117.77;105.27;;;22.40;99.90;;;;;;5101974;28;20424;-86
2023/08/15 03:07:30;;;;;;;113.53;101.57;;;22.40;99.90;;;;;;5105641;28;20439;-87
2023/08/15 03:09:55;;;;;;;116.20;104.33;;;22.30;99.90;;;;;;5104950;28;20430;-87
2023/08/15 03:12:21;;;;;;;107.27;95.73;;;22.40;99.90;;;;;;5105681;28;20195;-86
2023/08/15 03:14:47;;;;;;;122.93;110.83;;;22.30;99.90;;;;;;5105613;28;20191;-86
2023/08/15 03:17:13;;;;;;;120.03;107.73;;;22.40;99.90;;;;;;5103836;28;20201;-86
2023/08/15 03:19:39;;;;;;;119.97;107.03;;;22.50;99.90;;;;;;5104416;28;20191;-86
2023/08/15 03:22:08;;;;;;;115.50;103.47;;;22.60;99.90;;;;;;5104135;28;20437;-85
2023/08/15 03:24:33;;;;;;;130.80;117.70;;;22.60;99.90;;;;;;5105059;28;20182;-87
2023/08/15 03:26:59;;;;;;;124.73;112.03;;;22.50;99.90;;;;;;5101768;28;20408;-86
2023/08/15 03:29:25;;;;;;;133.53;120.70;;;22.50;99.90;;;;;;5103401;28;20195;-85
2023/08/15 03:31:55;;;;;;;128.23;115.67;;;22.50;99.90;;;;;;5103925;28;20512;-87
2023/08/15 03:34:21;;;;;;;131.23;118.70;;;22.50;99.90;;;;;;5103753;28;20158;-86
2023/08/15 03:36:47;;;;;;;133.23;120.40;;;22.50;99.90;;;;;;5105312;28;20429;-86
2023/08/15 03:39:12;;;;;;;128.63;116.07;;;22.40;99.90;;;;;;5103191;28;20437;-86
2023/08/15 03:41:38;;;;;;;132.60;119.90;;;22.40;99.90;;;;;;5102672;28;20178;-86
2023/08/15 03:44:04;;;;;;;145.13;131.87;;;22.30;99.90;;;;;;5103694;28;20245;-87
2023/08/15 03:46:30;;;;;;;139.87;127.03;;;22.40;99.90;;;;;;5105439;28;20194;-86
2023/08/15 03:48:56;;;;;;;136.67;123.57;;;22.30;99.90;;;;;;5107485;28;20421;-86
2023/08/15 03:51:22;;;;;;;131.73;118.83;;;22.30;99.90;;;;;;5112006;28;20421;-86
2023/08/15 03:53:47;;;;;;;125.77;113.00;;;22.30;99.90;;;;;;5109599;28;20179;-86
2023/08/15 03:56:13;;;;;;;136.13;123.13;;;22.20;99.90;;;;;;5104172;28;20238;-86
2023/08/15 03:58:39;;;;;;;139.53;126.23;;;22.10;99.90;;;;;;5104129;28;20164;-86
2023/08/15 04:01:04;;;;;;;139.37;126.40;;;22.10;99.90;;;;;;5108851;28;20199;-86
2023/08/15 04:03:30;;;;;;;133.73;120.93;;;22.10;99.90;;;;;;5106648;28;20229;-86
2023/08/15 04:05:56;;;;;;;144.77;131.57;;;22.10;99.90;;;;;;5103830;28;20174;-86
2023/08/15 04:08:22;;;;;;;135.47;122.37;;;22.20;99.90;;;;;;5106681;28;20160;-86
2023/08/15 04:10:47;;;;;;;135.17;122.30;;;22.20;99.90;;;;;;5104828;28;20183;-86
2023/08/15 04:13:14;;;;;;;134.93;121.73;;;22.30;99.90;;;;;;5103964;28;20418;-85
2023/08/15 04:15:40;;;;;;;139.93;126.73;;;22.30;99.90;;;;;;5102770;28;20221;-86
2023/08/15 04:18:08;;;;;;;134.90;121.80;;;22.20;99.90;;;;;;5101760;28;20414;-86
2023/08/15 04:20:38;;;;;;;143.47;130.07;;;22.10;99.90;;;;;;5103144;28;20445;-86
2023/08/15 04:23:05;;;;;;;143.80;130.47;;;22.10;99.90;;;;;;5102567;28;20401;-85
2023/08/15 04:25:31;;;;;;;142.37;128.80;;;22.00;99.90;;;;;;5103090;28;20479;-85
2023/08/15 04:27:57;;;;;;;141.37;128.27;;;22.00;99.90;;;;;;5102494;28;20401;-85
2023/08/15 04:30:23;;;;;;;136.77;123.77;;;22.00;99.90;;;;;;5101136;28;20857;-86
2023/08/15 04:32:48;;;;;;;146.90;133.63;;;22.00;99.90;;;;;;5101688;28;20163;-85
2023/08/15 04:35:14;;;;;;;141.00;127.90;;;21.90;99.90;;;;;;5100786;28;20205;-86
2023/08/15 04:37:40;;;;;;;147.50;134.20;;;22.00;99.90;;;;;;5101379;28;20174;-86
2023/08/15 04:40:12;;;;;;;129.17;116.23;;;22.10;99.90;;;;;;5102178;28;20808;-85
2023/08/15 04:42:37;;;;;;;138.00;124.93;;;22.10;99.90;;;;;;5100176;28;20401;-86
2023/08/15 04:45:04;;;;;;;134.27;121.47;;;22.10;99.90;;;;;;5102642;28;20481;-85
2023/08/15 04:47:29;;;;;;;140.43;126.70;;;22.10;99.90;;;;;;5100857;28;20175;-86
2023/08/15 04:49:55;;;;;;;137.70;124.33;;;22.10;99.90;;;;;;5102856;28;20433;-86
2023/08/15 04:52:21;;;;;;;131.57;118.70;;;22.10;99.90;;;;;;5102906;28;20189;-86
2023/08/15 04:54:46;;;;;;;130.90;118.07;;;22.10;99.90;;;;;;5102600;28;20186;-85
2023/08/15 04:57:12;;;;;;;132.70;119.00;;;22.10;99.90;;;;;;5104642;28;20813;-86
2023/08/15 04:59:38;;;;;;;117.30;105.10;;;22.10;99.90;;;;;;5102942;28;20216;-86
2023/08/15 05:02:03;;;;;;;127.77;115.17;;;22.00;99.90;;;;;;5103271;28;20243;-86
2023/08/15 05:04:29;;;;;;;114.00;101.90;;;21.90;99.90;;;;;;5103595;28;20163;-86
2023/08/15 05:06:55;;;;;;;128.57;115.87;;;21.90;99.90;;;;;;5100503;28;20654;-85
2023/08/15 05:09:21;;;;;;;135.03;122.23;;;21.80;99.90;;;;;;5098157;28;20439;-85
2023/08/15 05:11:46;;;;;;;126.13;113.53;;;21.50;99.90;;;;;;5102176;28;20162;-86
2023/08/15 05:14:13;;;;;;;120.00;107.63;;;21.40;99.90;;;;;;5102748;28;20235;-86
2023/08/15 05:16:38;;;;;;;126.93;114.20;;;21.50;99.90;;;;;;5102714;28;20220;-86
2023/08/15 05:19:04;;;;;;;121.63;109.23;;;21.70;99.90;;;;;;5102538;28;20429;-86
2023/08/15 05:21:30;;;;;;;123.13;110.67;;;21.70;99.90;;;;;;5103953;28;20189;-86
2023/08/15 05:23:56;;;;;;;132.67;119.97;;;21.60;99.90;;;;;;5102613;28;20168;-86
2023/08/15 05:26:22;;;;;;;122.20;109.63;;;21.50;99.90;;;;;;5104305;28;20168;-85
2023/08/15 05:28:47;;;;;;;121.90;109.33;;;21.60;99.90;;;;;;5104747;28;20171;-85
2023/08/15 05:32:28;;;;;;;111.73;99.83;;;21.70;99.90;;;;;;5092775;28;20405;-90
2023/08/15 06:03:24;;;;;;;;;;;;;;;;;;;;;
2023/08/15 06:25:49;;;;;;;110.50;98.60;;;22.50;99.90;;;;;;5054613;28;20942;-86
2023/08/15 06:32:47;;;;;;;118.33;106.47;;;22.60;99.90;;;;;;4899070;29;20403;-86
2023/08/15 06:35:38;;;;;;;;;;;;;;;;;;;;;
2023/08/15 06:38:04;;;;;;;107.40;92.57;;;22.70;99.90;;;;;;4898835;29;20398;-87
2023/08/15 06:40:31;;;;;;;99.67;82.33;;;22.70;99.90;;;;;;4928078;29;20531;-86
2023/08/15 06:42:57;;;;;;;93.57;66.20;;;22.80;99.90;;;;;;4995544;28;20231;-86
2023/08/15 06:45:23;;;;;;;99.87;71.03;;;22.80;99.90;;;;;;5039295;28;20430;-86
2023/08/15 06:47:49;;;;;;;95.77;63.40;;;22.70;99.90;;;;;;5037661;28;20168;-86
2023/08/15 06:50:15;;;;;;;90.37;49.50;;;22.80;99.90;;;;;;5038076;28;20416;-86
2023/08/15 06:52:41;;;;;;;86.43;40.17;;;22.80;99.90;;;;;;5037770;28;20405;-87
2023/08/15 06:55:07;;;;;;;88.47;46.53;;;22.80;99.90;;;;;;5037848;28;20470;-86
2023/08/15 06:57:33;;;;;;;88.30;47.67;;;22.80;99.90;;;;;;5036400;28;20276;-86
2023/08/15 06:59:59;;;;;;;89.07;43.87;;;22.80;99.90;;;;;;5096706;22;20703;-80
2023/08/15 07:02:25;;;;;;;84.93;34.93;;;22.90;99.90;;;;;;5055819;28;20400;-80
2023/08/15 07:04:51;;;;;;;84.67;38.87;;;22.90;99.90;;;;;;5056214;28;20759;-80
2023/08/15 07:07:17;;;;;;;88.70;47.27;;;23.00;99.90;;;;;;5055906;28;20243;-78
2023/08/15 07:09:44;;;;;;;77.43;21.67;;;23.10;99.90;;;;;;5055254;28;20412;-78
2023/08/15 07:12:09;;;;;;;78.37;21.57;;;23.10;99.90;;;;;;5037864;28;20490;-78
2023/08/15 07:14:35;;;;;;;76.50;15.87;;;23.20;99.90;;;;;;5055490;28;20961;-78
2023/08/15 07:17:01;;;;;;;76.00;15.03;;;23.30;99.90;;;;;;5055791;28;20161;-78
2023/08/15 07:19:27;;;;;;;75.40;16.00;;;23.20;99.90;;;;;;5037370;28;20214;-78
2023/08/15 07:21:53;;;;;;;80.10;27.27;;;23.00;99.90;;;;;;5037476;28;20169;-78
2023/08/15 07:24:18;;;;;;;84.67;33.77;;;23.00;99.90;;;;;;5055223;28;20192;-78
2023/08/15 07:26:45;;;;;;;86.60;44.83;;;22.90;99.90;;;;;;5055403;28;20168;-78
2023/08/15 07:29:12;;;;;;;87.20;47.80;;;22.80;99.90;;;;;;5037173;28;20196;-77
2023/08/15 07:31:37;;;;;;;90.53;51.10;;;22.80;99.90;;;;;;5055453;28;20751;-77
2023/08/15 07:34:03;;;;;;;87.70;50.83;;;22.90;99.90;;;;;;5055442;28;20422;-78
2023/08/15 07:36:29;;;;;;;84.80;36.33;;;22.90;99.90;;;;;;5055458;28;20156;-77
2023/08/15 07:38:55;;;;;;;79.93;24.47;;;22.80;99.90;;;;;;5054974;28;20252;-77
2023/08/15 07:41:21;;;;;;;90.73;28.97;;;23.00;99.90;;;;;;5055481;28;20184;-77
2023/08/15 07:43:47;;;;;;;82.70;34.40;;;23.10;99.90;;;;;;5036992;28;20419;-77
2023/08/15 07:46:13;;;;;;;93.90;46.63;;;23.20;99.90;;;;;;5054873;28;20161;-78
2023/08/15 07:48:38;;;;;;;89.90;53.20;;;23.20;99.90;;;;;;5054735;28;20161;-77
2023/08/15 07:51:04;;;;;;;81.10;31.87;;;23.20;99.90;;;;;;5036940;28;20168;-77
2023/08/15 07:53:30;;;;;;;79.60;27.97;;;23.10;99.90;;;;;;5054911;28;20177;-77
2023/08/15 07:55:57;;;;;;;84.40;42.00;;;23.00;99.90;;;;;;5054674;28;20223;-77
2023/08/15 07:58:22;;;;;;;95.83;65.80;;;23.10;99.90;;;;;;5036561;28;20818;-77
2023/08/15 08:00:48;;;;;;;88.00;45.90;;;23.10;99.90;;;;;;5054434;28;20524;-77
2023/08/15 08:03:16;;;;;;;79.30;28.10;;;23.10;99.90;;;;;;5054454;28;20200;-77
2023/08/15 08:05:42;;;;;;;79.83;27.67;;;23.00;99.90;;;;;;5036582;28;20192;-77
2023/08/15 08:08:08;;;;;;;83.83;35.03;;;23.00;99.90;;;;;;5054928;28;20403;-77
2023/08/15 08:10:34;;;;;;;82.90;31.80;;;23.00;99.90;;;;;;5037340;28;20427;-77
2023/08/15 08:13:00;;;;;;;80.03;27.03;;;23.00;99.90;;;;;;5038025;28;20172;-77
2023/08/15 08:15:27;;;;;;;80.40;24.80;;;23.00;99.90;;;;;;5055523;28;20418;-77
2023/08/15 08:17:53;;;;;;;76.23;18.97;;;23.10;99.90;;;;;;5056240;28;20624;-77
2023/08/15 08:20:20;;;;;;;77.40;19.97;;;23.30;99.90;;;;;;5055194;28;20443;-78
2023/08/15 08:22:46;;;;;;;79.67;17.93;;;23.40;99.90;;;;;;5055637;28;20153;-78
2023/08/15 08:25:23;;;;;;;76.10;14.33;;;23.40;99.90;;;;;;5055835;28;20406;-78
2023/08/15 08:27:50;;;;;;;76.17;15.47;;;23.60;99.90;;;;;;5055752;28;20218;-77
2023/08/15 08:30:22;;;;;;;77.40;16.67;;;23.70;99.90;;;;;;5055309;28;20472;-78
2023/08/15 08:32:48;;;;;;;76.00;14.37;;;23.80;99.90;;;;;;5037650;28;20828;-77
2023/08/15 08:35:17;;;;;;;75.40;15.43;;;23.90;99.90;;;;;;5037846;28;20502;-77
2023/08/15 08:37:44;;;;;;;76.60;15.37;;;24.00;99.90;;;;;;5055541;28;20899;-77
2023/08/15 08:40:13;;;;;;;76.73;18.07;;;23.90;99.90;;;;;;5055558;28;20447;-77
2023/08/15 08:42:43;;;;;;;75.73;15.57;;;23.90;99.90;;;;;;5055537;28;20395;-77
2023/08/15 08:45:10;;;;;;;78.23;13.97;;;23.80;99.90;;;;;;5037743;28;20414;-78
2023/08/15 08:47:39;;;;;;;76.60;15.10;;;23.70;99.90;;;;;;5055588;28;20400;-77
2023/08/15 08:50:11;;;;;;;79.30;18.00;;;23.80;99.90;;;;;;5037135;28;20431;-78
2023/08/15 08:52:48;;;;;;;80.90;19.83;;;23.80;99.90;;;;;;5037556;28;20411;-78
2023/08/15 08:55:14;;;;;;;79.50;18.40;;;23.70;99.90;;;;;;5055269;28;20801;-77
2023/08/15 08:57:41;;;;;;;75.70;18.30;;;23.70;99.90;;;;;;5054995;28;20413;-77
2023/08/15 09:00:09;;;;;;;77.20;19.50;;;23.70;99.90;;;;;;5036612;28;20462;-77
2023/08/15 09:02:35;;;;;;;79.40;17.90;;;23.80;99.90;;;;;;5037141;28;20412;-77
2023/08/15 09:05:04;;;;;;;80.20;20.40;;;23.80;99.90;;;;;;5055101;28;20889;-78
2023/08/15 09:07:33;;;;;;;78.63;17.30;;;23.80;99.90;;;;;;5037097;28;20412;-77
2023/08/15 09:09:58;;;;;;;80.27;18.40;;;23.80;99.90;;;;;;5055067;28;20434;-77
2023/08/15 09:12:38;;;;;;;77.83;16.77;;;23.80;99.90;;;;;;5055265;28;20400;-77
2023/08/15 09:15:08;;;;;;;77.20;20.70;;;23.80;99.90;;;;;;5055087;28;20259;-78
2023/08/15 09:17:34;;;;;;;79.17;20.50;;;23.70;99.90;;;;;;5055196;28;20899;-77
2023/08/15 09:20:14;;;;;;;78.93;23.07;;;23.80;99.90;;;;;;5055198;28;20531;-77
2023/08/15 09:22:45;;;;;;;79.80;21.07;;;23.80;99.90;;;;;;5054762;28;20929;-77
2023/08/15 09:25:13;;;;;;;79.30;21.70;;;23.80;99.90;;;;;;5054997;28;20395;-78
2023/08/15 09:27:40;;;;;;;78.03;19.83;;;23.90;99.90;;;;;;5054964;28;20429;-78
2023/08/15 09:30:08;;;;;;;79.57;17.33;;;23.90;99.90;;;;;;5055153;28;20419;-77
2023/08/15 09:32:34;;;;;;;77.97;18.13;;;24.00;99.90;;;;;;5038180;28;20407;-77
2023/08/15 09:34:59;;;;;;;81.23;20.07;;;24.00;99.90;;;;;;5057814;28;20782;-78
2023/08/15 09:37:26;;;;;;;83.50;21.47;;;23.90;99.90;;;;;;5057735;28;20200;-79
2023/08/15 09:39:51;;;;;;;75.73;15.87;;;23.70;99.90;;;;;;5058062;28;20200;-80
2023/08/15 09:42:21;;;;;;;78.67;19.70;;;23.70;99.90;;;;;;5057914;28;20522;-80
2023/08/15 09:44:50;;;;;;;79.17;20.80;;;23.70;99.90;;;;;;5057591;28;20240;-80
2023/08/15 09:47:19;;;;;;;77.17;18.67;;;23.70;99.90;;;;;;5057890;28;20479;-80
2023/08/15 09:49:45;;;;;;;77.47;20.37;;;23.70;99.90;;;;;;5057595;28;20419;-80
2023/08/15 09:52:12;;;;;;;80.87;19.97;;;23.70;99.90;;;;;;5057552;28;20438;-80
2023/08/15 09:54:40;;;;;;;82.10;18.37;;;23.70;99.90;;;;;;5057257;28;20824;-77
2023/08/15 09:57:06;;;;;;;81.60;19.80;;;23.80;99.90;;;;;;5057177;28;20407;-79
2023/08/15 09:59:31;;;;;;;79.30;17.93;;;23.80;99.90;;;;;;5057166;28;20465;-79
2023/08/15 10:01:59;;;;;;;83.97;19.03;;;23.90;99.90;;;;;;5057366;28;20157;-79
2023/08/15 10:04:31;;;;;;;80.80;19.60;;;23.90;99.90;;;;;;5057153;28;20161;-79
2023/08/15 10:06:58;;;;;;;77.60;19.23;;;24.00;99.90;;;;;;5039381;28;20434;-79
2023/08/15 10:09:26;;;;;;;80.10;18.47;;;24.10;99.90;;;;;;5057237;28;20426;-79
2023/08/15 10:11:54;;;;;;;80.50;20.67;;;24.30;99.90;;;;;;5057023;28;20414;-79
2023/08/15 10:14:21;;;;;;;80.47;21.37;;;24.30;99.90;;;;;;5039245;28;20418;-79
2023/08/15 10:16:47;;;;;;;82.83;26.87;;;24.50;99.90;;;;;;5039637;28;20487;-79
2023/08/15 10:19:18;;;;;;;81.00;25.27;;;24.40;99.90;;;;;;5057037;28;20490;-79
2023/08/15 10:21:52;;;;;;;81.07;26.23;;;24.40;99.90;;;;;;5039447;28;20180;-79
2023/08/15 10:24:18;;;;;;;83.77;26.83;;;24.60;99.90;;;;;;5056901;28;20395;-79
2023/08/15 10:26:44;;;;;;;81.03;25.50;;;24.70;99.90;;;;;;5056930;28;20754;-79
2023/08/15 10:29:10;;;;;;;80.10;23.73;;;24.90;99.90;;;;;;5056892;28;20824;-79
2023/08/15 10:31:39;;;;;;;80.60;21.90;;;25.10;99.90;;;;;;5056782;28;20430;-79
2023/08/15 10:34:08;;;;;;;79.47;24.07;;;25.20;99.90;;;;;;5038942;28;20420;-79
2023/08/15 10:36:34;;;;;;;79.97;23.87;;;25.30;99.90;;;;;;5038588;28;20502;-79
2023/08/15 10:39:07;;;;;;;78.77;19.50;;;25.40;99.90;;;;;;5056928;28;20851;-79
2023/08/15 10:41:37;;;;;;;79.17;19.50;;;25.30;97.00;;;;;;5056779;28;20216;-80
2023/08/15 10:44:12;;;;;;;78.40;20.10;;;25.30;97.40;;;;;;5055869;28;20398;-79
2023/08/15 10:46:39;;;;;;;80.53;20.80;;;25.30;98.30;;;;;;5038648;28;20406;-79
2023/08/15 10:49:11;;;;;;;80.03;20.63;;;25.20;95.20;;;;;;5038511;28;20432;-79
2023/08/15 10:51:39;;;;;;;79.13;19.43;;;25.20;99.90;;;;;;5056854;28;20420;-79
2023/08/15 10:54:06;;;;;;;78.87;20.53;;;25.30;99.90;;;;;;5039060;28;20492;-80
2023/08/15 10:56:34;;;;;;;78.63;19.90;;;25.50;99.90;;;;;;5058901;28;20491;-80
2023/08/15 10:59:07;;;;;;;79.03;20.10;;;25.60;99.90;;;;;;5041942;28;20433;-79
2023/08/15 11:01:34;;;;;;;75.87;12.27;;;25.80;92.90;;;;;;5041184;28;20454;-79
2023/08/15 11:04:00;;;;;;;74.60;12.77;;;25.90;84.30;;;;;;5059350;28;20420;-79
2023/08/15 11:06:25;;;;;;;75.47;15.80;;;26.00;85.00;;;;;;5059416;28;20490;-79
2023/08/15 11:08:58;;;;;;;73.93;10.43;;;26.00;91.90;;;;;;5041132;28;20243;-79
2023/08/15 11:11:25;;;;;;;75.67;14.07;;;26.10;81.30;;;;;;5059488;28;20176;-80
2023/08/15 11:13:53;;;;;;;84.57;11.47;;;26.20;81.20;;;;;;5041147;28;20498;-80
2023/08/15 11:16:22;;;;;;;73.87;8.97;;;26.30;81.80;;;;;;5059532;28;20429;-79
2023/08/15 11:18:48;;;;;;;77.47;8.20;;;26.50;68.30;;;;;;5059370;28;20399;-79
2023/08/15 11:21:18;;;;;;;74.63;8.10;;;26.60;50.40;;;;;;5059114;28;20533;-80
2023/08/15 11:23:45;;;;;;;74.20;8.17;;;26.60;55.00;;;;;;5058964;28;20455;-80
2023/08/15 11:26:14;;;;;;;75.30;8.73;;;26.70;56.90;;;;;;5040813;28;20411;-80
2023/08/15 11:28:40;;;;;;;74.60;8.77;;;26.60;30.50;;;;;;5059083;28;20841;-79
2023/08/15 11:31:11;;;;;;;73.73;9.60;;;26.50;56.60;;;;;;5059143;28;20501;-80
2023/08/15 11:33:37;;;;;;;76.60;11.43;;;26.70;55.10;;;;;;5040498;28;20419;-79
2023/08/15 11:36:08;;;;;;;76.07;7.40;;;26.80;68.00;;;;;;5058720;28;20403;-79
2023/08/15 11:38:35;;;;;;;74.27;8.30;;;27.00;58.40;;;;;;5059698;28;20887;-79
2023/08/15 11:41:02;;;;;;;75.30;8.50;;;27.20;55.40;;;;;;5057295;28;20450;-79
2023/08/15 11:43:29;;;;;;;74.60;8.60;;;27.00;46.60;;;;;;5037306;28;21093;-80
2023/08/15 11:45:56;;;;;;;76.10;8.20;;;27.30;56.50;;;;;;5037673;28;20419;-80
2023/08/15 11:48:22;;;;;;;74.80;8.17;;;27.50;24.60;;;;;;5055158;28;20873;-80
2023/08/15 11:50:47;;;;;;;79.97;9.67;;;27.50;19.50;;;;;;5055039;28;20437;-80
2023/08/15 11:53:15;;;;;;;76.97;9.10;;;27.40;16.10;;;;;;5055705;28;20847;-79
2023/08/15 11:55:42;;;;;;;73.10;7.33;;;27.20;14.50;;;;;;5055440;28;20164;-79
2023/08/15 11:58:40;;;;;;;76.10;7.57;;;27.00;19.90;;;;;;5037033;28;20441;-80
2023/08/15 12:01:11;;;;;;;75.57;8.00;;;27.00;28.70;;;;;;5021407;28;20550;-79
2023/08/15 12:03:37;;;;;;;74.13;8.53;;;27.10;36.40;;;;;;5055387;28;20406;-79
2023/08/15 12:06:11;;;;;;;79.20;12.43;;;27.40;25.90;;;;;;5055166;28;20831;-79
2023/08/15 12:08:38;;;;;;;75.27;8.70;;;27.60;13.40;;;;;;5036790;28;20947;-80
2023/08/15 12:11:08;;;;;;;75.17;8.03;;;27.60;14.60;;;;;;5055562;28;20965;-80
2023/08/15 12:13:38;;;;;;;75.23;8.37;;;27.40;16.80;;;;;;5036814;28;20407;-80
2023/08/15 12:16:06;;;;;;;77.23;7.63;;;27.40;23.20;;;;;;5055720;28;20391;-79
2023/08/15 12:18:33;;;;;;;74.43;7.43;;;27.40;21.70;;;;;;5055543;28;20433;-80
2023/08/15 12:20:59;;;;;;;73.60;7.40;;;27.50;29.50;;;;;;5055347;28;20485;-80
2023/08/15 12:23:28;;;;;;;73.67;8.03;;;27.60;27.60;;;;;;5055583;28;20411;-79
2023/08/15 12:25:54;;;;;;;73.70;8.03;;;27.70;18.60;;;;;;5055690;28;20400;-80
2023/08/15 12:28:19;;;;;;;77.40;11.23;;;27.60;21.50;;;;;;5055378;28;20402;-80
2023/08/15 12:30:48;;;;;;;78.23;10.70;;;27.60;8.50;;;;;;5055003;28;20212;-80
2023/08/15 12:33:14;;;;;;;76.40;11.03;;;27.40;15.90;;;;;;5055177;28;20271;-79
2023/08/15 12:35:40;;;;;;;75.50;8.23;;;27.50;15.20;;;;;;5055292;28;20411;-79
2023/08/15 12:38:06;;;;;;;72.97;7.67;;;27.50;26.10;;;;;;5054787;28;20256;-80
2023/08/15 12:40:32;;;;;;;76.37;8.30;;;27.40;33.70;;;;;;5055634;28;20471;-80
2023/08/15 12:42:58;;;;;;;74.10;9.77;;;27.50;21.10;;;;;;5055213;28;20156;-80
2023/08/15 12:45:24;;;;;;;74.30;11.03;;;27.50;21.10;;;;;;5054939;28;20169;-80
2023/08/15 12:47:50;;;;;;;75.07;8.90;;;27.10;22.50;;;;;;5054724;28;20396;-79
2023/08/15 12:50:16;;;;;;;73.43;8.90;;;26.60;42.60;;;;;;5036949;28;20430;-79
2023/08/15 12:52:41;;;;;;;76.00;10.30;;;26.60;55.80;;;;;;5055013;28;20165;-80
2023/08/15 12:55:07;;;;;;;76.77;11.50;;;26.30;71.50;;;;;;5036694;28;20670;-79
2023/08/15 12:57:33;;;;;;;75.47;13.03;;;26.20;71.20;;;;;;5054974;28;20165;-79
2023/08/15 12:59:58;;;;;;;82.90;16.70;;;25.90;85.40;;;;;;5128809;22;20223;-85
2023/08/15 13:02:28;;;;;;;76.67;13.10;;;25.90;92.30;;;;;;5063065;28;20247;-85
2023/08/15 13:04:54;;;;;;;75.47;12.87;;;25.90;91.90;;;;;;5081384;28;20187;-84
2023/08/15 13:07:20;;;;;;;81.20;17.77;;;26.00;91.80;;;;;;5080594;28;20391;-85
2023/08/15 13:09:45;;;;;;;77.17;13.67;;;26.20;99.90;;;;;;5080890;28;20485;-84
2023/08/15 13:12:11;;;;;;;77.17;16.00;;;26.20;93.50;;;;;;5080841;28;20577;-85
2023/08/15 13:14:37;;;;;;;77.43;14.20;;;26.10;94.20;;;;;;5062812;28;20172;-85
2023/08/15 13:17:03;;;;;;;74.70;15.77;;;26.00;94.20;;;;;;5081126;28;20424;-85
2023/08/15 13:19:30;;;;;;;77.90;14.87;;;26.00;98.40;;;;;;5062554;28;20426;-85